Charlottesville Albemarle Airport
KCHO : now visible

Airfield :











YOU CAN JOIN US ON...

 
LOGIN :

Register | Disclaimer

   EN    FR    IT 

 









Legend :    VFR   Marginal VFR   IFR   Intensive IFR   Very Intensive IFR
Visi :
Ceiling :
>= 8 km
>= 3000ft
5 to 8 km
1000 to 3000 ft
1500m to 5 km
500 to 1000 ft
800 to 1500m
200 to 500 ft
< 800m
< 200 ft
Symbols :   Thunderstorms  Fog  Heavy snow  Heavy precipitations  Wind > 20 kt






- Airport Elevation : 639 ft
- IATA code : CHO


KCHO - Charlottesville Albemarle

CURRENT METAR :
  • 291953Z 20012KT 10SM FEW055 FEW070 BKN095 08/04 A3014 RMK AO2 RAE11 SLP206 P0000 T00780039

EXPIRED METARs :
  • 291853Z 20013KT 10SM -RA OVC085 07/03 A3015 RMK AO2 RAB05 SLP212 P0000 T00720033
  • 291753Z 19008KT 10SM BKN060 OVC080 07/02 A3018 RMK AO2 RAB26E51 SLP222 P0000 60000 T00720022 10072 20044 58017

TAF KCHO
Valid from the 29 at 18:00 until the 30 at 18:00 UTC


291737Z 2918/3018 20010KT 6SM -RA BKN070 OVC100
FM292200 20009KT P6SM BKN025 OVC050
FM300200 20003KT P6SM OVC035
FM301000 00000KT P6SM BKN050
FM301500 17004KT P6SM SCT050
KZDC FIR / North America



MET'MAP, your aeronautical weather chart ! - Copyright ORBIFLY December 2007 - Disclaimer

ORBIFLY MET'MAP TEAM :

Programming & Development : Alexandra Zaïnal
Original concept : Baudouin d'Aumeries
Technical & hardware support : Manuel Goepfert
Assistance : Marc-Olivier Méhu




SOURCES & CREDITS :

   NOAA       Earth
Advisory